sensor_id;sensor_type;location;lat;lon;timestamp;pressure;altitude;pressure_sealevel;temperature;humidity
10202;BME280;5143;42.584;23.164;2023-03-31T00:00:21;92575.22;;;9.14;55.41
10202;BME280;5143;42.584;23.164;2023-03-31T00:02:48;92578.00;;;9.20;55.24
10202;BME280;5143;42.584;23.164;2023-03-31T00:05:18;92583.06;;;9.27;54.91
10202;BME280;5143;42.584;23.164;2023-03-31T00:07:47;92585.38;;;9.34;54.55
10202;BME280;5143;42.584;23.164;2023-03-31T00:10:13;92583.03;;;9.41;53.96
10202;BME280;5143;42.584;23.164;2023-03-31T00:12:43;92586.09;;;9.49;53.35
10202;BME280;5143;42.584;23.164;2023-03-31T00:15:11;92583.72;;;9.57;52.77
10202;BME280;5143;42.584;23.164;2023-03-31T00:17:37;92581.75;;;9.57;52.61
10202;BME280;5143;42.584;23.164;2023-03-31T00:20:06;92581.63;;;9.66;52.09
10202;BME280;5143;42.584;23.164;2023-03-31T00:22:36;92583.16;;;9.73;52.33
10202;BME280;5143;42.584;23.164;2023-03-31T00:25:08;92575.75;;;9.73;52.45
10202;BME280;5143;42.584;23.164;2023-03-31T00:27:35;92575.00;;;9.73;52.28
10202;BME280;5143;42.584;23.164;2023-03-31T00:30:05;92576.31;;;9.77;51.91
10202;BME280;5143;42.584;23.164;2023-03-31T00:32:32;92575.44;;;9.86;51.61
10202;BME280;5143;42.584;23.164;2023-03-31T00:34:58;92567.25;;;9.86;51.70
10202;BME280;5143;42.584;23.164;2023-03-31T00:37:26;92572.47;;;9.89;51.53
10202;BME280;5143;42.584;23.164;2023-03-31T00:39:54;92566.28;;;9.89;51.48
10202;BME280;5143;42.584;23.164;2023-03-31T00:42:22;92562.13;;;9.93;50.49
10202;BME280;5143;42.584;23.164;2023-03-31T00:45:20;92560.22;;;9.99;50.82
10202;BME280;5143;42.584;23.164;2023-03-31T00:47:49;92557.75;;;10.01;50.39
10202;BME280;5143;42.584;23.164;2023-03-31T00:50:21;92554.13;;;10.10;49.69
10202;BME280;5143;42.584;23.164;2023-03-31T00:52:53;92547.75;;;10.13;49.92
10202;BME280;5143;42.584;23.164;2023-03-31T00:55:24;92540.97;;;10.08;50.31
10202;BME280;5143;42.584;23.164;2023-03-31T00:57:56;92534.75;;;10.08;50.47
10202;BME280;5143;42.584;23.164;2023-03-31T01:00:26;92546.41;;;10.08;50.32
10202;BME280;5143;42.584;23.164;2023-03-31T01:02:56;92531.00;;;10.05;50.32
10202;BME280;5143;42.584;23.164;2023-03-31T01:05:26;92536.47;;;10.05;49.95
10202;BME280;5143;42.584;23.164;2023-03-31T01:07:55;92534.03;;;10.07;50.31
10202;BME280;5143;42.584;23.164;2023-03-31T01:10:24;92534.03;;;10.07;50.48
10202;BME280;5143;42.584;23.164;2023-03-31T01:12:54;92534.44;;;10.00;50.62
10202;BME280;5143;42.584;23.164;2023-03-31T01:15:22;92525.78;;;10.02;50.00
10202;BME280;5143;42.584;23.164;2023-03-31T01:17:51;92530.06;;;10.08;49.59
10202;BME280;5143;42.584;23.164;2023-03-31T01:20:27;92535.31;;;10.12;49.55
10202;BME280;5143;42.584;23.164;2023-03-31T01:23:29;92543.97;;;10.11;49.61
10202;BME280;5143;42.584;23.164;2023-03-31T01:26:26;92538.53;;;10.11;49.52
10202;BME280;5143;42.584;23.164;2023-03-31T01:29:09;92531.56;;;10.09;49.28
10202;BME280;5143;42.584;23.164;2023-03-31T01:32:00;92553.94;;;10.14;49.36
10202;BME280;5143;42.584;23.164;2023-03-31T01:38:05;92547.38;;;10.05;49.83
10202;BME280;5143;42.584;23.164;2023-03-31T01:43:32;92551.34;;;10.04;50.02
10202;BME280;5143;42.584;23.164;2023-03-31T01:46:09;92550.53;;;9.98;50.25
10202;BME280;5143;42.584;23.164;2023-03-31T01:48:45;92556.56;;;10.08;49.47
10202;BME280;5143;42.584;23.164;2023-03-31T01:51:17;92563.75;;;10.05;49.88
10202;BME280;5143;42.584;23.164;2023-03-31T01:53:49;92558.84;;;10.09;49.59
10202;BME280;5143;42.584;23.164;2023-03-31T01:56:20;92556.31;;;10.06;50.08
10202;BME280;5143;42.584;23.164;2023-03-31T01:58:52;92554.00;;;9.99;50.49
10202;BME280;5143;42.584;23.164;2023-03-31T02:01:25;92574.81;;;9.96;50.43
10202;BME280;5143;42.584;23.164;2023-03-31T02:03:57;92572.09;;;9.96;50.48
10202;BME280;5143;42.584;23.164;2023-03-31T02:06:27;92572.78;;;9.91;50.51
10202;BME280;5143;42.584;23.164;2023-03-31T02:08:59;92577.72;;;9.93;50.80
10202;BME280;5143;42.584;23.164;2023-03-31T02:11:32;92577.41;;;9.85;52.11
10202;BME280;5143;42.584;23.164;2023-03-31T02:14:00;92586.78;;;9.84;54.05
10202;BME280;5143;42.584;23.164;2023-03-31T02:16:30;92600.97;;;9.68;55.04
10202;BME280;5143;42.584;23.164;2023-03-31T02:19:03;92607.97;;;9.55;58.51
10202;BME280;5143;42.584;23.164;2023-03-31T02:21:32;92612.03;;;9.44;62.42
10202;BME280;5143;42.584;23.164;2023-03-31T02:24:01;92619.22;;;9.27;62.59
10202;BME280;5143;42.584;23.164;2023-03-31T02:26:35;92619.63;;;9.06;66.84
10202;BME280;5143;42.584;23.164;2023-03-31T02:29:05;92612.75;;;8.96;70.84
10202;BME280;5143;42.584;23.164;2023-03-31T02:31:38;92608.00;;;8.90;72.65
10202;BME280;5143;42.584;23.164;2023-03-31T02:34:07;92602.28;;;8.88;78.80
10202;BME280;5143;42.584;23.164;2023-03-31T02:36:35;92580.72;;;8.70;84.65
10202;BME280;5143;42.584;23.164;2023-03-31T02:39:05;92602.00;;;8.72;90.47
10202;BME280;5143;42.584;23.164;2023-03-31T02:41:34;92601.34;;;8.62;95.52
10202;BME280;5143;42.584;23.164;2023-03-31T02:44:01;92600.69;;;8.53;100.00
10202;BME280;5143;42.584;23.164;2023-03-31T02:46:28;92588.56;;;8.39;100.00
10202;BME280;5143;42.584;23.164;2023-03-31T02:48:59;92580.47;;;8.15;100.00
10202;BME280;5143;42.584;23.164;2023-03-31T02:51:36;92574.72;;;7.99;100.00
10202;BME280;5143;42.584;23.164;2023-03-31T02:54:32;92551.03;;;7.76;100.00
10202;BME280;5143;42.584;23.164;2023-03-31T02:57:28;92546.63;;;7.78;100.00
10202;BME280;5143;42.584;23.164;2023-03-31T03:00:08;92546.50;;;7.72;100.00
10202;BME280;5143;42.584;23.164;2023-03-31T03:02:49;92545.75;;;7.72;100.00
10202;BME280;5143;42.584;23.164;2023-03-31T03:05:24;92544.44;;;7.67;100.00
10202;BME280;5143;42.584;23.164;2023-03-31T03:08:01;92520.75;;;7.68;100.00
10202;BME280;5143;42.584;23.164;2023-03-31T03:10:39;92509.59;;;7.66;100.00
10202;BME280;5143;42.584;23.164;2023-03-31T03:13:16;92506.41;;;7.67;100.00
10202;BME280;5143;42.584;23.164;2023-03-31T03:15:47;92500.06;;;7.70;100.00
10202;BME280;5143;42.584;23.164;2023-03-31T03:18:15;92498.53;;;7.69;100.00
10202;BME280;5143;42.584;23.164;2023-03-31T03:20:42;92483.16;;;7.66;100.00
10202;BME280;5143;42.584;23.164;2023-03-31T03:23:12;92485.81;;;7.76;100.00
10202;BME280;5143;42.584;23.164;2023-03-31T03:25:40;92500.72;;;7.80;100.00
10202;BME280;5143;42.584;23.164;2023-03-31T03:28:07;92497.47;;;7.91;100.00
10202;BME280;5143;42.584;23.164;2023-03-31T03:30:35;92497.00;;;7.92;100.00
10202;BME280;5143;42.584;23.164;2023-03-31T03:33:02;92501.88;;;8.03;100.00
10202;BME280;5143;42.584;23.164;2023-03-31T03:35:30;92501.22;;;8.08;100.00
10202;BME280;5143;42.584;23.164;2023-03-31T03:37:57;92493.81;;;8.08;100.00
10202;BME280;5143;42.584;23.164;2023-03-31T03:40:24;92491.84;;;8.09;100.00
10202;BME280;5143;42.584;23.164;2023-03-31T03:42:51;92492.13;;;8.25;100.00
10202;BME280;5143;42.584;23.164;2023-03-31T03:45:17;92496.19;;;8.30;100.00
10202;BME280;5143;42.584;23.164;2023-03-31T03:47:45;92497.03;;;8.36;100.00
10202;BME280;5143;42.584;23.164;2023-03-31T03:50:12;92499.84;;;8.42;100.00
10202;BME280;5143;42.584;23.164;2023-03-31T03:52:39;92500.19;;;8.49;100.00
10202;BME280;5143;42.584;23.164;2023-03-31T03:55:06;92465.34;;;8.33;100.00
10202;BME280;5143;42.584;23.164;2023-03-31T03:57:33;92502.66;;;8.47;100.00
10202;BME280;5143;42.584;23.164;2023-03-31T04:00:00;92506.13;;;8.33;100.00
10202;BME280;5143;42.584;23.164;2023-03-31T04:02:26;92502.88;;;8.29;100.00
10202;BME280;5143;42.584;23.164;2023-03-31T04:04:55;92502.91;;;8.20;100.00
10202;BME280;5143;42.584;23.164;2023-03-31T04:07:22;92501.88;;;8.17;100.00
10202;BME280;5143;42.584;23.164;2023-03-31T04:09:49;92507.59;;;8.05;100.00
10202;BME280;5143;42.584;23.164;2023-03-31T04:12:15;92516.69;;;8.02;100.00
10202;BME280;5143;42.584;23.164;2023-03-31T04:14:42;92518.75;;;8.07;100.00
10202;BME280;5143;42.584;23.164;2023-03-31T04:17:09;92516.97;;;8.04;100.00
10202;BME280;5143;42.584;23.164;2023-03-31T04:19:40;92527.19;;;8.09;100.00
10202;BME280;5143;42.584;23.164;2023-03-31T04:22:08;92522.13;;;8.02;100.00
10202;BME280;5143;42.584;23.164;2023-03-31T04:24:36;92528.50;;;7.99;100.00
10202;BME280;5143;42.584;23.164;2023-03-31T04:27:03;92530.75;;;8.00;100.00
10202;BME280;5143;42.584;23.164;2023-03-31T04:29:32;92508.78;;;7.89;100.00
10202;BME280;5143;42.584;23.164;2023-03-31T04:32:01;92526.06;;;8.01;100.00
10202;BME280;5143;42.584;23.164;2023-03-31T04:34:28;92533.28;;;8.04;100.00
10202;BME280;5143;42.584;23.164;2023-03-31T04:37:00;92524.75;;;8.11;100.00
10202;BME280;5143;42.584;23.164;2023-03-31T04:39:29;92523.38;;;8.15;100.00
10202;BME280;5143;42.584;23.164;2023-03-31T04:41:56;92526.81;;;8.16;100.00
10202;BME280;5143;42.584;23.164;2023-03-31T04:44:23;92532.06;;;8.19;100.00
10202;BME280;5143;42.584;23.164;2023-03-31T04:46:50;92532.66;;;8.23;100.00
10202;BME280;5143;42.584;23.164;2023-03-31T04:49:17;92529.44;;;8.25;100.00
10202;BME280;5143;42.584;23.164;2023-03-31T04:51:43;92538.31;;;8.35;100.00
10202;BME280;5143;42.584;23.164;2023-03-31T04:54:10;92541.31;;;8.37;100.00
10202;BME280;5143;42.584;23.164;2023-03-31T04:56:39;92540.19;;;8.43;100.00
10202;BME280;5143;42.584;23.164;2023-03-31T04:59:05;92527.03;;;8.42;100.00
10202;BME280;5143;42.584;23.164;2023-03-31T05:01:33;92531.53;;;8.45;100.00
10202;BME280;5143;42.584;23.164;2023-03-31T05:04:00;92531.38;;;8.48;100.00
10202;BME280;5143;42.584;23.164;2023-03-31T05:06:27;92521.97;;;8.49;100.00
10202;BME280;5143;42.584;23.164;2023-03-31T05:08:54;92521.25;;;8.49;99.41
10202;BME280;5143;42.584;23.164;2023-03-31T05:11:21;92508.44;;;8.55;98.44
10202;BME280;5143;42.584;23.164;2023-03-31T05:13:49;92507.50;;;8.72;98.45
10202;BME280;5143;42.584;23.164;2023-03-31T05:16:16;92516.50;;;8.78;97.85
10202;BME280;5143;42.584;23.164;2023-03-31T05:18:43;92497.03;;;9.00;97.53
10202;BME280;5143;42.584;23.164;2023-03-31T05:21:11;92491.38;;;9.04;95.28
10202;BME280;5143;42.584;23.164;2023-03-31T05:23:39;92495.97;;;9.32;94.16
10202;BME280;5143;42.584;23.164;2023-03-31T05:26:06;92496.69;;;9.93;86.15
10202;BME280;5143;42.584;23.164;2023-03-31T05:28:35;92496.56;;;10.28;82.01
10202;BME280;5143;42.584;23.164;2023-03-31T05:31:05;92499.38;;;10.39;80.11
10202;BME280;5143;42.584;23.164;2023-03-31T05:33:32;92502.41;;;10.16;75.02
10202;BME280;5143;42.584;23.164;2023-03-31T05:36:05;92506.53;;;9.85;75.52
10202;BME280;5143;42.584;23.164;2023-03-31T05:38:31;92501.00;;;10.05;74.25
10202;BME280;5143;42.584;23.164;2023-03-31T05:40:59;92504.94;;;10.25;74.85
10202;BME280;5143;42.584;23.164;2023-03-31T05:43:25;92507.78;;;10.36;72.42
10202;BME280;5143;42.584;23.164;2023-03-31T05:45:52;92506.63;;;10.42;70.12
10202;BME280;5143;42.584;23.164;2023-03-31T05:48:20;92506.13;;;10.44;70.81
10202;BME280;5143;42.584;23.164;2023-03-31T05:50:47;92497.78;;;10.53;70.71
10202;BME280;5143;42.584;23.164;2023-03-31T05:53:14;92504.38;;;10.72;70.18
10202;BME280;5143;42.584;23.164;2023-03-31T05:55:41;92505.97;;;10.84;70.35
10202;BME280;5143;42.584;23.164;2023-03-31T05:58:07;92519.75;;;11.01;69.52
10202;BME280;5143;42.584;23.164;2023-03-31T06:00:34;92512.41;;;10.81;67.43
10202;BME280;5143;42.584;23.164;2023-03-31T06:03:02;92515.31;;;10.72;68.76
10202;BME280;5143;42.584;23.164;2023-03-31T06:05:33;92519.09;;;10.49;71.20
10202;BME280;5143;42.584;23.164;2023-03-31T06:08:00;92518.44;;;10.34;70.89
10202;BME280;5143;42.584;23.164;2023-03-31T06:10:27;92521.97;;;10.40;71.96
10202;BME280;5143;42.584;23.164;2023-03-31T06:12:53;92521.97;;;10.40;72.63
10202;BME280;5143;42.584;23.164;2023-03-31T06:15:20;92522.31;;;10.22;72.46
10202;BME280;5143;42.584;23.164;2023-03-31T06:17:47;92510.19;;;10.02;74.89
10202;BME280;5143;42.584;23.164;2023-03-31T06:20:13;92504.38;;;9.95;74.65
10202;BME280;5143;42.584;23.164;2023-03-31T06:22:41;92517.13;;;9.83;75.58
10202;BME280;5143;42.584;23.164;2023-03-31T06:25:08;92512.09;;;9.96;75.96
10202;BME280;5143;42.584;23.164;2023-03-31T06:27:35;92514.97;;;9.87;76.24
10202;BME280;5143;42.584;23.164;2023-03-31T06:30:02;92508.00;;;9.86;74.76
10202;BME280;5143;42.584;23.164;2023-03-31T06:32:29;92506.41;;;10.00;74.65
10202;BME280;5143;42.584;23.164;2023-03-31T06:34:55;92512.50;;;9.89;74.55
10202;BME280;5143;42.584;23.164;2023-03-31T06:37:22;92508.81;;;9.92;75.96
10202;BME280;5143;42.584;23.164;2023-03-31T06:39:50;92505.56;;;9.88;76.09
10202;BME280;5143;42.584;23.164;2023-03-31T06:42:17;92508.84;;;9.72;77.70
10202;BME280;5143;42.584;23.164;2023-03-31T06:44:44;92497.19;;;9.72;79.08
10202;BME280;5143;42.584;23.164;2023-03-31T06:47:10;92506.25;;;9.63;78.83
10202;BME280;5143;42.584;23.164;2023-03-31T06:49:37;92513.94;;;9.65;78.14
10202;BME280;5143;42.584;23.164;2023-03-31T06:52:04;92520.84;;;9.80;79.20
10202;BME280;5143;42.584;23.164;2023-03-31T06:54:31;92486.34;;;9.77;78.58
10202;BME280;5143;42.584;23.164;2023-03-31T06:57:00;92505.44;;;10.03;76.74
10202;BME280;5143;42.584;23.164;2023-03-31T06:59:26;92506.41;;;10.20;74.85
10202;BME280;5143;42.584;23.164;2023-03-31T07:01:53;92503.38;;;10.44;72.38
10202;BME280;5143;42.584;23.164;2023-03-31T07:04:20;92496.94;;;10.73;70.45
10202;BME280;5143;42.584;23.164;2023-03-31T07:06:47;92498.81;;;10.92;67.50
10202;BME280;5143;42.584;23.164;2023-03-31T07:09:14;92499.00;;;11.20;66.01
10202;BME280;5143;42.584;23.164;2023-03-31T07:11:40;92492.56;;;11.23;65.25
10202;BME280;5143;42.584;23.164;2023-03-31T07:14:09;92489.25;;;11.56;64.62
10202;BME280;5143;42.584;23.164;2023-03-31T07:16:35;92496.50;;;11.64;62.71
10202;BME280;5143;42.584;23.164;2023-03-31T07:19:02;92485.06;;;12.30;60.62
10202;BME280;5143;42.584;23.164;2023-03-31T07:21:30;92485.03;;;13.36;57.97
10202;BME280;5143;42.584;23.164;2023-03-31T07:23:57;92490.94;;;13.68;56.02
10202;BME280;5143;42.584;23.164;2023-03-31T07:26:24;92497.03;;;13.96;53.77
10202;BME280;5143;42.584;23.164;2023-03-31T07:28:51;92503.91;;;14.25;53.62
10202;BME280;5143;42.584;23.164;2023-03-31T07:31:22;92494.81;;;14.82;52.82
10202;BME280;5143;42.584;23.164;2023-03-31T07:33:49;92495.66;;;15.01;51.64
10202;BME280;5143;42.584;23.164;2023-03-31T07:36:16;92476.41;;;14.30;51.55
10202;BME280;5143;42.584;23.164;2023-03-31T07:38:44;92460.75;;;14.19;52.35
10202;BME280;5143;42.584;23.164;2023-03-31T07:41:14;92448.78;;;14.23;53.46
10202;BME280;5143;42.584;23.164;2023-03-31T07:43:42;92450.59;;;14.09;53.64
10202;BME280;5143;42.584;23.164;2023-03-31T07:46:20;92454.81;;;13.58;54.28
10202;BME280;5143;42.584;23.164;2023-03-31T07:48:49;92451.94;;;13.06;55.11
10202;BME280;5143;42.584;23.164;2023-03-31T07:51:18;92465.13;;;13.24;55.85
10202;BME280;5143;42.584;23.164;2023-03-31T07:53:45;92459.63;;;13.93;55.46
10202;BME280;5143;42.584;23.164;2023-03-31T07:56:14;92464.44;;;14.33;53.70
10202;BME280;5143;42.584;23.164;2023-03-31T07:58:42;92461.03;;;14.16;53.88
10202;BME280;5143;42.584;23.164;2023-03-31T08:01:12;92464.91;;;14.37;53.65
10202;BME280;5143;42.584;23.164;2023-03-31T08:03:41;92478.97;;;14.63;52.81
10202;BME280;5143;42.584;23.164;2023-03-31T08:06:09;92470.19;;;14.70;51.54
10202;BME280;5143;42.584;23.164;2023-03-31T08:08:36;92465.56;;;14.54;51.98
10202;BME280;5143;42.584;23.164;2023-03-31T08:11:07;92460.69;;;14.31;52.44
10202;BME280;5143;42.584;23.164;2023-03-31T08:13:34;92449.78;;;13.68;54.67
10202;BME280;5143;42.584;23.164;2023-03-31T08:16:01;92458.59;;;13.44;54.63
10202;BME280;5143;42.584;23.164;2023-03-31T08:18:28;92452.91;;;13.20;55.17
10202;BME280;5143;42.584;23.164;2023-03-31T08:20:55;92438.00;;;12.93;56.38
10202;BME280;5143;42.584;23.164;2023-03-31T08:23:23;92453.69;;;12.76;57.18
10202;BME280;5143;42.584;23.164;2023-03-31T08:25:50;92449.19;;;13.00;57.47
10202;BME280;5143;42.584;23.164;2023-03-31T08:28:16;92446.91;;;13.32;56.01
10202;BME280;5143;42.584;23.164;2023-03-31T08:30:43;92446.97;;;13.10;56.98
10202;BME280;5143;42.584;23.164;2023-03-31T08:33:10;92441.97;;;13.03;56.17
10202;BME280;5143;42.584;23.164;2023-03-31T08:35:37;92431.78;;;13.09;56.96
10202;BME280;5143;42.584;23.164;2023-03-31T08:38:04;92418.22;;;13.39;55.28
10202;BME280;5143;42.584;23.164;2023-03-31T08:40:32;92429.09;;;14.13;54.43
10202;BME280;5143;42.584;23.164;2023-03-31T08:43:02;92425.31;;;14.22;53.95
10202;BME280;5143;42.584;23.164;2023-03-31T08:45:33;92418.59;;;14.58;53.45
10202;BME280;5143;42.584;23.164;2023-03-31T08:48:04;92420.63;;;14.82;53.50
10202;BME280;5143;42.584;23.164;2023-03-31T08:50:34;92418.00;;;14.35;53.63
10202;BME280;5143;42.584;23.164;2023-03-31T08:53:07;92423.25;;;14.33;53.40
10202;BME280;5143;42.584;23.164;2023-03-31T08:55:46;92410.50;;;13.95;53.17
10202;BME280;5143;42.584;23.164;2023-03-31T08:58:25;92403.19;;;14.08;53.59
10202;BME280;5143;42.584;23.164;2023-03-31T09:00:59;92405.13;;;13.73;53.50
10202;BME280;5143;42.584;23.164;2023-03-31T09:03:30;92408.38;;;13.66;54.41
10202;BME280;5143;42.584;23.164;2023-03-31T09:06:00;92415.59;;;13.74;53.98
10202;BME280;5143;42.584;23.164;2023-03-31T09:08:37;92409.81;;;14.59;52.47
10202;BME280;5143;42.584;23.164;2023-03-31T09:11:12;92413.78;;;15.18;52.94
10202;BME280;5143;42.584;23.164;2023-03-31T09:13:51;92420.78;;;15.67;50.37
10202;BME280;5143;42.584;23.164;2023-03-31T09:16:23;92406.56;;;15.63;50.21
10202;BME280;5143;42.584;23.164;2023-03-31T09:18:53;92403.50;;;15.67;50.68
10202;BME280;5143;42.584;23.164;2023-03-31T09:21:27;92411.84;;;15.61;50.15
10202;BME280;5143;42.584;23.164;2023-03-31T09:23:59;92405.09;;;15.38;50.57
10202;BME280;5143;42.584;23.164;2023-03-31T09:26:35;92396.94;;;15.03;49.07
10202;BME280;5143;42.584;23.164;2023-03-31T09:29:06;92396.00;;;14.95;49.96
10202;BME280;5143;42.584;23.164;2023-03-31T09:31:40;92396.72;;;15.01;50.27
10202;BME280;5143;42.584;23.164;2023-03-31T09:34:13;92401.75;;;15.21;50.43
10202;BME280;5143;42.584;23.164;2023-03-31T09:36:40;92398.16;;;15.31;50.25
10202;BME280;5143;42.584;23.164;2023-03-31T09:39:11;92395.41;;;15.31;50.48
10202;BME280;5143;42.584;23.164;2023-03-31T09:41:43;92379.00;;;15.45;50.31
10202;BME280;5143;42.584;23.164;2023-03-31T09:44:23;92387.03;;;15.18;48.02
10202;BME280;5143;42.584;23.164;2023-03-31T09:46:51;92372.53;;;15.42;47.72
10202;BME280;5143;42.584;23.164;2023-03-31T09:49:20;92377.16;;;15.53;49.17
10202;BME280;5143;42.584;23.164;2023-03-31T09:51:57;92366.63;;;15.57;48.66
10202;BME280;5143;42.584;23.164;2023-03-31T09:54:27;92364.97;;;15.48;47.40
10202;BME280;5143;42.584;23.164;2023-03-31T09:56:59;92377.19;;;15.71;47.84
10202;BME280;5143;42.584;23.164;2023-03-31T09:59:30;92373.91;;;15.54;47.35
10202;BME280;5143;42.584;23.164;2023-03-31T10:02:01;92363.34;;;15.58;47.88
10202;BME280;5143;42.584;23.164;2023-03-31T10:04:31;92360.81;;;15.60;48.83
10202;BME280;5143;42.584;23.164;2023-03-31T10:07:00;92354.06;;;15.80;48.16
10202;BME280;5143;42.584;23.164;2023-03-31T10:09:29;92351.97;;;15.86;47.91
10202;BME280;5143;42.584;23.164;2023-03-31T10:12:03;92342.75;;;15.65;48.63
10202;BME280;5143;42.584;23.164;2023-03-31T10:14:34;92346.91;;;15.71;48.11
10202;BME280;5143;42.584;23.164;2023-03-31T10:17:06;92348.06;;;15.63;48.52
10202;BME280;5143;42.584;23.164;2023-03-31T10:19:34;92342.31;;;15.98;48.34
10202;BME280;5143;42.584;23.164;2023-03-31T10:22:04;92337.09;;;15.94;46.24
10202;BME280;5143;42.584;23.164;2023-03-31T10:24:39;92337.38;;;16.10;45.88
10202;BME280;5143;42.584;23.164;2023-03-31T10:27:17;92342.53;;;16.32;45.06
10202;BME280;5143;42.584;23.164;2023-03-31T10:29:46;92330.63;;;15.92;46.03
10202;BME280;5143;42.584;23.164;2023-03-31T10:32:17;92329.88;;;15.91;46.65
10202;BME280;5143;42.584;23.164;2023-03-31T10:34:47;92330.63;;;15.92;47.28
10202;BME280;5143;42.584;23.164;2023-03-31T10:37:17;92318.06;;;15.78;46.79
10202;BME280;5143;42.584;23.164;2023-03-31T10:39:44;92319.09;;;15.93;46.67
10202;BME280;5143;42.584;23.164;2023-03-31T10:42:20;92309.31;;;16.11;46.36
10202;BME280;5143;42.584;23.164;2023-03-31T10:44:48;92309.72;;;16.34;45.24
10202;BME280;5143;42.584;23.164;2023-03-31T10:47:19;92302.53;;;16.44;45.08
10202;BME280;5143;42.584;23.164;2023-03-31T10:49:49;92305.72;;;16.48;44.94
10202;BME280;5143;42.584;23.164;2023-03-31T10:52:19;92310.44;;;16.53;44.32
10202;BME280;5143;42.584;23.164;2023-03-31T10:54:48;92306.94;;;16.66;44.04
10202;BME280;5143;42.584;23.164;2023-03-31T10:57:17;92308.00;;;16.63;44.01
10202;BME280;5143;42.584;23.164;2023-03-31T10:59:59;92305.19;;;16.49;43.85
10202;BME280;5143;42.584;23.164;2023-03-31T11:03:02;92297.75;;;16.44;45.38
10202;BME280;5143;42.584;23.164;2023-03-31T11:05:38;92299.97;;;16.33;44.27
10202;BME280;5143;42.584;23.164;2023-03-31T11:08:20;92296.63;;;15.89;44.01
10202;BME280;5143;42.584;23.164;2023-03-31T11:11:03;92273.28;;;15.77;45.76
10202;BME280;5143;42.584;23.164;2023-03-31T11:13:38;92288.69;;;16.18;44.61
10202;BME280;5143;42.584;23.164;2023-03-31T11:16:17;92281.16;;;16.50;44.58
10202;BME280;5143;42.584;23.164;2023-03-31T11:18:54;92282.25;;;16.73;44.83
10202;BME280;5143;42.584;23.164;2023-03-31T11:21:28;92268.28;;;16.97;44.11
10202;BME280;5143;42.584;23.164;2023-03-31T11:24:04;92266.75;;;17.23;42.58
10202;BME280;5143;42.584;23.164;2023-03-31T11:26:39;92254.13;;;17.87;42.89
10202;BME280;5143;42.584;23.164;2023-03-31T11:29:19;92253.50;;;18.43;41.87
10202;BME280;5143;42.584;23.164;2023-03-31T11:32:01;92253.41;;;18.69;40.27
10202;BME280;5143;42.584;23.164;2023-03-31T11:34:53;92241.28;;;18.52;42.19
10202;BME280;5143;42.584;23.164;2023-03-31T11:37:51;92244.00;;;18.72;40.39
10202;BME280;5143;42.584;23.164;2023-03-31T11:40:29;92210.47;;;17.86;41.64
10202;BME280;5143;42.584;23.164;2023-03-31T11:43:03;92227.78;;;17.86;41.30
10202;BME280;5143;42.584;23.164;2023-03-31T11:45:34;92225.03;;;17.52;42.19
10202;BME280;5143;42.584;23.164;2023-03-31T11:48:12;92228.00;;;17.54;42.01
10202;BME280;5143;42.584;23.164;2023-03-31T11:50:44;92211.28;;;17.73;43.62
10202;BME280;5143;42.584;23.164;2023-03-31T11:53:15;92219.19;;;17.56;42.00
10202;BME280;5143;42.584;23.164;2023-03-31T11:55:47;92213.72;;;17.63;42.13
10202;BME280;5143;42.584;23.164;2023-03-31T11:58:17;92203.66;;;17.66;40.87
10202;BME280;5143;42.584;23.164;2023-03-31T12:00:50;92203.59;;;17.45;40.95
10202;BME280;5143;42.584;23.164;2023-03-31T12:03:23;92197.88;;;17.43;43.13
10202;BME280;5143;42.584;23.164;2023-03-31T12:05:57;92195.94;;;17.85;41.96
10202;BME280;5143;42.584;23.164;2023-03-31T12:08:30;92186.03;;;17.90;40.97
10202;BME280;5143;42.584;23.164;2023-03-31T12:11:04;92190.25;;;18.11;41.27
10202;BME280;5143;42.584;23.164;2023-03-31T12:13:39;92183.38;;;18.25;40.36
10202;BME280;5143;42.584;23.164;2023-03-31T12:16:13;92187.94;;;18.64;40.52
10202;BME280;5143;42.584;23.164;2023-03-31T12:18:46;92179.84;;;19.02;39.76
10202;BME280;5143;42.584;23.164;2023-03-31T12:21:19;92178.44;;;19.16;39.27
10202;BME280;5143;42.584;23.164;2023-03-31T12:23:48;92178.56;;;19.47;39.41
10202;BME280;5143;42.584;23.164;2023-03-31T12:26:26;92169.88;;;19.07;38.46
10202;BME280;5143;42.584;23.164;2023-03-31T12:29:10;92179.75;;;18.87;37.69
10202;BME280;5143;42.584;23.164;2023-03-31T12:31:39;92172.47;;;18.69;38.36
10202;BME280;5143;42.584;23.164;2023-03-31T12:34:13;92170.59;;;18.64;40.08
10202;BME280;5143;42.584;23.164;2023-03-31T12:36:54;92173.16;;;18.62;38.65
10202;BME280;5143;42.584;23.164;2023-03-31T12:39:33;92173.59;;;18.45;38.57
10202;BME280;5143;42.584;23.164;2023-03-31T12:42:24;92147.56;;;18.12;39.97
10202;BME280;5143;42.584;23.164;2023-03-31T12:44:58;92152.66;;;18.08;39.86
10202;BME280;5143;42.584;23.164;2023-03-31T12:50:52;92138.13;;;18.36;39.44
10202;BME280;5143;42.584;23.164;2023-03-31T12:53:30;92135.03;;;18.40;38.52
10202;BME280;5143;42.584;23.164;2023-03-31T12:55:59;92139.44;;;18.63;39.62
10202;BME280;5143;42.584;23.164;2023-03-31T12:58:40;92128.81;;;18.47;38.78
10202;BME280;5143;42.584;23.164;2023-03-31T13:01:09;92119.78;;;18.46;38.84
10202;BME280;5143;42.584;23.164;2023-03-31T13:03:45;92118.66;;;18.42;38.45
10202;BME280;5143;42.584;23.164;2023-03-31T13:09:56;92094.88;;;18.39;40.02
10202;BME280;5143;42.584;23.164;2023-03-31T13:12:24;92087.06;;;18.58;38.68
10202;BME280;5143;42.584;23.164;2023-03-31T13:14:52;92068.50;;;18.66;38.24
10202;BME280;5143;42.584;23.164;2023-03-31T13:17:26;92071.69;;;18.77;38.30
10202;BME280;5143;42.584;23.164;2023-03-31T13:19:55;92065.28;;;18.54;39.46
10202;BME280;5143;42.584;23.164;2023-03-31T13:22:34;92061.97;;;18.48;37.90
10202;BME280;5143;42.584;23.164;2023-03-31T13:25:30;92063.72;;;18.38;38.36
10202;BME280;5143;42.584;23.164;2023-03-31T13:28:07;92053.91;;;18.58;39.60
10202;BME280;5143;42.584;23.164;2023-03-31T13:30:54;92045.78;;;18.60;37.73
10202;BME280;5143;42.584;23.164;2023-03-31T13:33:27;92030.31;;;18.57;37.99
10202;BME280;5143;42.584;23.164;2023-03-31T13:39:09;92026.94;;;19.02;38.15